createdAt,value
2022-11-12T00:00:09.422Z,100160.75
2022-11-12T00:02:57.149Z,100156.75
2022-11-12T00:05:45.234Z,100157.53
2022-11-12T00:08:32.511Z,100135.41
2022-11-12T00:11:19.784Z,100142.13
2022-11-12T00:14:07.139Z,100133.81
2022-11-12T00:16:54.422Z,100147.25
2022-11-12T00:19:41.672Z,100136.56
2022-11-12T00:22:30.506Z,100137.38
2022-11-12T00:25:17.748Z,100124.72
2022-11-12T00:28:07.628Z,100113.63
2022-11-12T00:30:54.948Z,100104.50
2022-11-12T00:33:43.181Z,100102.97
2022-11-12T00:36:31.116Z,100089.50
2022-11-12T00:39:18.306Z,100087.91
2022-11-12T00:42:05.742Z,100071.69
2022-11-12T00:44:53.146Z,100067.34
2022-11-12T00:47:40.376Z,100062.59
2022-11-12T00:50:27.590Z,100059.44
2022-11-12T00:53:14.819Z,100061.00
2022-11-12T00:56:04.183Z,100066.91
2022-11-12T00:58:51.495Z,100067.31
2022-11-12T01:01:39.650Z,100076.81
2022-11-12T01:04:26.803Z,100085.09
2022-11-12T01:07:16.226Z,100084.69
2022-11-12T01:10:03.817Z,100087.44
2022-11-12T01:12:51.229Z,100089.00
2022-11-12T01:15:42.505Z,100085.84
2022-11-12T01:18:29.749Z,100079.91
2022-11-12T01:21:17.102Z,100078.28
2022-11-12T01:24:04.512Z,100076.31
2022-11-12T01:26:51.791Z,100069.59
2022-11-12T01:29:39.070Z,100072.72
2022-11-12T01:32:28.112Z,100078.25
2022-11-12T01:35:15.394Z,100081.44
2022-11-12T01:38:02.658Z,100071.94
2022-11-12T01:40:49.823Z,100062.03
2022-11-12T01:43:37.395Z,100052.53
2022-11-12T01:46:29.109Z,100050.13
2022-11-12T01:49:24.663Z,100037.88
2022-11-12T01:52:35.081Z,100052.13
2022-11-12T01:55:26.505Z,100047.38
2022-11-12T01:58:18.707Z,100052.13
2022-11-12T02:01:06.120Z,100047.38
2022-11-12T02:03:53.357Z,100046.94
2022-11-12T02:06:43.275Z,100046.94
2022-11-12T02:09:31.424Z,100052.47
2022-11-12T02:12:38.677Z,100035.47
2022-11-12T02:15:46.062Z,100029.13
2022-11-12T02:18:33.506Z,100018.06
2022-11-12T02:21:23.143Z,100016.47
2022-11-12T02:26:55.394Z,100010.47
2022-11-12T02:29:46.642Z,100019.63
2022-11-12T02:32:33.986Z,100008.91
2022-11-12T02:35:21.230Z,100015.69
2022-11-12T02:38:09.268Z,100010.94
2022-11-12T02:40:56.489Z,100010.53
2022-11-12T02:43:44.019Z,100005.78
2022-11-12T02:46:31.234Z,100008.56
2022-11-12T02:49:18.419Z,100002.22
2022-11-12T02:52:05.668Z,99992.72
2022-11-12T02:54:52.838Z,99995.88
2022-11-12T02:57:40.552Z,99992.69
2022-11-12T03:00:27.954Z,99982.81
2022-11-12T03:03:15.962Z,99973.31
2022-11-12T03:06:03.231Z,99983.97
2022-11-12T03:08:50.546Z,99987.91
2022-11-12T03:11:37.802Z,99978.75
2022-11-12T03:14:25.147Z,99980.34
2022-11-12T03:17:12.336Z,99963.38
2022-11-12T03:19:59.557Z,99957.81
2022-11-12T03:23:05.508Z,99961.00
2022-11-12T03:25:53.151Z,99941.59
2022-11-12T03:28:40.331Z,99945.16
2022-11-12T03:31:27.522Z,99944.75
2022-11-12T03:34:14.831Z,99942.75
2022-11-12T03:37:03.399Z,99944.34
2022-11-12T03:39:50.666Z,99936.03
2022-11-12T03:42:37.872Z,99935.63
2022-11-12T03:45:27.656Z,99922.97
2022-11-12T03:48:17.698Z,99924.59
2022-11-12T03:51:04.918Z,99927.34
2022-11-12T03:53:52.129Z,99917.47
2022-11-12T03:56:39.593Z,99917.47
2022-11-12T03:59:26.871Z,99912.72
2022-11-12T04:02:14.715Z,99904.81
2022-11-12T04:05:21.961Z,99901.25
2022-11-12T04:08:39.567Z,99893.38
2022-11-12T04:11:26.802Z,99906.00
2022-11-12T04:14:14.012Z,99911.53
2022-11-12T04:17:21.117Z,99918.31
2022-11-12T04:20:29.397Z,99907.22
2022-11-12T04:23:17.273Z,99917.88
2022-11-12T04:26:24.432Z,99919.84
2022-11-12T04:29:36.319Z,99928.56
2022-11-12T04:32:25.804Z,99926.97
2022-11-12T04:35:13.633Z,99915.06
2022-11-12T04:38:01.011Z,99928.91
2022-11-12T04:41:08.762Z,99916.28
2022-11-12T04:44:15.593Z,99908.75
2022-11-12T04:47:02.784Z,99909.91
2022-11-12T04:49:50.404Z,99917.03
2022-11-12T04:52:37.575Z,99903.91
2022-11-12T04:55:24.771Z,99900.75
2022-11-12T04:58:11.989Z,99895.19
2022-11-12T05:00:59.217Z,99898.31
2022-11-12T05:03:46.566Z,99893.19
2022-11-12T05:06:53.677Z,99884.47
2022-11-12T05:09:42.170Z,99879.34
2022-11-12T05:12:31.524Z,99878.16
2022-11-12T05:15:18.981Z,99870.22
2022-11-12T05:18:06.323Z,99873.00
2022-11-12T05:20:54.067Z,99887.19
2022-11-12T05:23:41.349Z,99891.94
2022-11-12T05:26:29.486Z,99897.44
2022-11-12T05:29:17.005Z,99889.13
2022-11-12T05:32:05.416Z,99888.72
2022-11-12T05:34:52.744Z,99894.59
2022-11-12T05:37:39.976Z,99879.16
2022-11-12T05:40:27.184Z,99879.16
2022-11-12T05:43:14.465Z,99878.72
2022-11-12T05:46:01.711Z,99879.50
2022-11-12T05:48:48.915Z,99868.81
2022-11-12T05:51:36.273Z,99878.25
2022-11-12T05:54:25.277Z,99883.41
2022-11-12T05:57:12.468Z,99878.59
2022-11-12T06:00:00.844Z,99878.19
2022-11-12T06:02:48.208Z,99873.78
2022-11-12T06:05:36.410Z,99885.25
2022-11-12T06:08:23.841Z,99878.91
2022-11-12T06:11:11.345Z,99862.28
2022-11-12T06:13:58.573Z,99865.41
2022-11-12T06:16:45.806Z,99870.91
2022-11-12T06:19:33.023Z,99863.34
2022-11-12T06:22:20.327Z,99859.78
2022-11-12T06:25:07.870Z,99864.47
2022-11-12T06:27:55.138Z,99862.09
2022-11-12T06:30:42.356Z,99863.63
2022-11-12T06:33:29.620Z,99869.16
2022-11-12T06:36:19.571Z,99869.09
2022-11-12T06:39:06.797Z,99865.13
2022-11-12T06:41:54.768Z,99865.94
2022-11-12T06:44:42.269Z,99863.13
2022-11-12T06:47:30.893Z,99853.94
2022-11-12T06:50:18.196Z,99842.00
2022-11-12T06:53:05.478Z,99842.38
2022-11-12T06:55:53.283Z,99841.19
2022-11-12T06:58:41.152Z,99841.19
2022-11-12T07:01:28.427Z,99841.06
2022-11-12T07:04:15.720Z,99833.91
2022-11-12T07:07:06.763Z,99838.91
2022-11-12T07:09:57.613Z,99840.84
2022-11-12T07:12:47.929Z,99833.72
2022-11-12T07:15:39.458Z,99839.28
2022-11-12T07:18:27.693Z,99832.94
2022-11-12T07:21:19.087Z,99828.63
2022-11-12T07:24:06.566Z,99822.28
2022-11-12T07:26:53.779Z,99813.22
2022-11-12T07:29:49.031Z,99808.88
2022-11-12T07:32:40.241Z,99821.91
2022-11-12T07:35:31.312Z,99828.63
2022-11-12T07:38:18.506Z,99813.50
2022-11-12T07:41:15.668Z,99804.78
2022-11-12T07:44:02.875Z,99800.81
2022-11-12T07:46:50.141Z,99794.06
2022-11-12T07:49:37.387Z,99772.66
2022-11-12T07:52:24.562Z,99759.91
2022-11-12T07:55:11.825Z,99749.53
2022-11-12T07:58:00.502Z,99758.94
2022-11-12T08:00:47.744Z,99750.53
2022-11-12T08:03:35.118Z,99740.56
2022-11-12T08:06:22.440Z,99737.81
2022-11-12T08:09:10.541Z,99735.03
2022-11-12T08:11:57.848Z,99728.72
2022-11-12T08:14:45.087Z,99720.31
2022-11-12T08:17:32.318Z,99718.25
2022-11-12T08:20:19.561Z,99718.97
2022-11-12T08:23:07.119Z,99714.03
2022-11-12T08:25:59.493Z,99723.16
2022-11-12T08:28:46.782Z,99717.25
2022-11-12T08:31:34.117Z,99711.72
2022-11-12T08:34:22.804Z,99719.25
2022-11-12T08:37:10.212Z,99717.97
2022-11-12T08:39:57.425Z,99717.13
2022-11-12T08:42:44.664Z,99716.78
2022-11-12T08:45:34.271Z,99706.09
2022-11-12T08:48:21.229Z,99695.75
2022-11-12T08:51:08.658Z,99674.34
2022-11-12T08:53:55.888Z,99675.47
2022-11-12T08:56:43.450Z,99679.44
2022-11-12T08:59:30.641Z,99668.78
2022-11-12T09:02:17.983Z,99668.00
2022-11-12T09:05:06.217Z,99663.25
2022-11-12T09:08:03.825Z,99648.91
2022-11-12T09:10:52.356Z,99640.09
2022-11-12T09:13:39.670Z,99642.44
2022-11-12T09:16:26.942Z,99629.69
2022-11-12T09:19:14.257Z,99614.09
2022-11-12T09:22:01.552Z,99625.09
2022-11-12T09:24:48.745Z,99617.94
2022-11-12T09:27:35.933Z,99610.38
2022-11-12T09:30:23.970Z,99609.59
2022-11-12T09:33:11.289Z,99601.16
2022-11-12T09:36:01.689Z,99593.22
2022-11-12T09:38:48.927Z,99582.44
2022-11-12T09:41:39.822Z,99580.84
2022-11-12T09:44:27.137Z,99563.78
2022-11-12T09:47:23.721Z,99563.69
2022-11-12T09:50:36.944Z,99563.25
2022-11-12T09:53:43.018Z,99551.72
2022-11-12T09:56:31.820Z,99539.03
2022-11-12T09:59:19.475Z,99523.16
2022-11-12T10:07:59.257Z,99518.19
2022-11-12T10:10:50.018Z,99516.38
2022-11-12T10:19:36.823Z,99504.66
2022-11-12T10:25:19.527Z,99485.13
2022-11-12T10:31:13.302Z,99468.38
2022-11-12T10:37:02.778Z,99448.38
2022-11-12T10:39:50.197Z,99446.13
2022-11-12T10:42:57.200Z,99444.50
2022-11-12T10:45:45.793Z,99430.16
2022-11-12T10:48:34.721Z,99439.25
2022-11-12T10:51:29.289Z,99433.28
2022-11-12T11:00:15.129Z,99438.47
2022-11-12T11:03:16.963Z,99441.47
2022-11-12T11:17:04.990Z,99406.97
2022-11-12T11:19:52.234Z,99394.03
2022-11-12T11:22:46.570Z,99391.72
2022-11-12T11:25:36.393Z,99388.94
2022-11-12T11:28:43.189Z,99380.25
2022-11-12T11:31:53.806Z,99387.44
2022-11-12T11:34:58.095Z,99370.09
2022-11-12T11:40:37.792Z,99363.31
2022-11-12T11:44:06.055Z,99360.75
2022-11-12T11:58:15.219Z,99344.09
2022-11-12T12:07:24.932Z,99301.75
2022-11-12T12:13:01.583Z,99287.41
2022-11-12T12:19:21.761Z,99265.19
2022-11-12T12:22:15.805Z,99260.63
2022-11-12T12:25:12.720Z,99253.38
2022-11-12T12:28:08.389Z,99246.63
2022-11-12T12:31:01.431Z,99243.41
2022-11-12T12:39:22.997Z,99216.50
2022-11-12T12:42:22.973Z,99212.75
2022-11-12T12:48:04.947Z,99211.44
2022-11-12T12:50:56.521Z,99200.06
2022-11-12T12:53:43.861Z,99189.41
2022-11-12T12:59:20.172Z,99181.66
2022-11-12T13:02:20.401Z,99171.53
2022-11-12T13:05:27.994Z,99169.19
2022-11-12T13:08:23.193Z,99156.84
2022-11-12T13:11:10.900Z,99145.44
2022-11-12T13:14:37.777Z,99147.84
2022-11-12T13:17:47.280Z,99130.88
2022-11-12T13:20:37.644Z,99127.75
2022-11-12T13:24:07.275Z,99116.28
2022-11-12T13:26:59.692Z,99113.97
2022-11-12T13:29:48.242Z,99096.97
2022-11-12T13:32:44.227Z,99118.41
2022-11-12T13:35:35.229Z,99101.41
2022-11-12T13:38:22.500Z,99106.19
2022-11-12T13:41:46.027Z,99097.09
2022-11-12T13:44:35.602Z,99097.09
2022-11-12T13:47:24.880Z,99096.19
2022-11-12T13:50:20.466Z,99098.97
2022-11-12T13:53:09.502Z,99088.97
2022-11-12T13:55:56.927Z,99096.09
2022-11-12T13:58:44.395Z,99077.41
2022-11-12T14:01:33.025Z,99083.31
2022-11-12T14:04:24.239Z,99074.97
2022-11-12T14:07:40.119Z,99068.22
2022-11-12T14:16:28.625Z,99074.84
2022-11-12T14:19:49.734Z,99067.53
2022-11-12T14:22:42.320Z,99071.97
2022-11-12T14:25:29.792Z,99076.31
2022-11-12T14:28:34.646Z,99076.66
2022-11-12T14:31:25.899Z,99086.44
2022-11-12T14:34:28.947Z,99074.84
2022-11-12T14:37:39.828Z,99072.41
2022-11-12T14:40:34.097Z,99067.19
2022-11-12T14:43:33.016Z,99061.66
2022-11-12T14:46:28.366Z,99061.97
2022-11-12T14:49:28.336Z,99072.94
2022-11-12T14:52:22.154Z,99064.97
2022-11-12T14:55:15.754Z,99068.53
2022-11-12T14:58:04.624Z,99058.19
2022-11-12T15:00:54.718Z,99071.63
2022-11-12T15:03:42.218Z,99063.63
2022-11-12T15:06:32.733Z,99059.50
2022-11-12T15:09:31.831Z,99061.38
2022-11-12T15:12:24.438Z,99058.16
2022-11-12T15:15:27.446Z,99063.72
2022-11-12T15:18:19.412Z,99051.38
2022-11-12T15:24:01.394Z,99055.81
2022-11-12T15:26:50.896Z,99053.91
2022-11-12T15:29:38.175Z,99052.34
2022-11-12T15:35:02.605Z,99049.56
2022-11-12T15:37:50.183Z,99048.31
2022-11-12T15:40:44.104Z,99050.66
2022-11-12T15:43:37.098Z,99056.06
2022-11-12T15:46:24.391Z,99065.19
2022-11-12T15:49:13.105Z,99061.19
2022-11-12T15:52:00.377Z,99056.72
2022-11-12T15:54:47.942Z,99053.19
2022-11-12T15:57:41.165Z,99046.06
2022-11-12T16:00:34.954Z,99045.59
2022-11-12T16:03:22.924Z,99044.38
2022-11-12T16:06:12.481Z,99045.81
2022-11-12T16:08:59.745Z,99044.97
2022-11-12T16:11:50.035Z,99043.28
2022-11-12T16:14:37.425Z,99037.91
2022-11-12T16:17:24.799Z,99046.13
2022-11-12T16:20:18.787Z,99050.13
2022-11-12T16:23:06.266Z,99032.56
2022-11-12T16:25:53.642Z,99038.13
2022-11-12T16:28:40.957Z,99032.56
2022-11-12T16:31:28.186Z,99017.09
2022-11-12T16:34:15.508Z,99014.31
2022-11-12T16:37:03.310Z,99002.41
2022-11-12T16:39:50.532Z,99001.97
2022-11-12T16:42:37.790Z,98999.69
2022-11-12T16:45:34.099Z,98999.56
2022-11-12T16:48:23.083Z,98991.69
2022-11-12T16:51:16.952Z,98989.53
2022-11-12T16:54:04.624Z,98997.88
2022-11-12T16:56:51.862Z,99006.53
2022-11-12T16:59:39.122Z,99005.31
2022-11-12T17:02:26.516Z,99012.75
2022-11-12T17:07:57.566Z,99019.63
2022-11-12T17:10:44.999Z,99012.16
2022-11-12T17:13:32.301Z,99011.72
2022-11-12T17:16:19.583Z,99013.28
2022-11-12T17:19:06.964Z,99014.94
2022-11-12T17:21:54.250Z,99007.81
2022-11-12T17:24:41.545Z,99025.75
2022-11-12T17:27:30.525Z,99033.19
2022-11-12T17:30:18.302Z,99025.94
2022-11-12T17:33:05.611Z,99023.34
2022-11-12T17:35:52.823Z,99033.09
2022-11-12T17:38:40.367Z,99039.44
2022-11-12T17:41:29.477Z,99027.09
2022-11-12T17:44:18.537Z,99048.44
2022-11-12T17:47:05.799Z,99040.09
2022-11-12T17:49:53.024Z,99050.59
2022-11-12T17:52:40.324Z,99055.38
2022-11-12T17:55:28.663Z,99067.47
2022-11-12T17:58:15.836Z,99058.69
2022-11-12T18:01:11.631Z,99060.69
2022-11-12T18:03:59.593Z,99059.56
2022-11-12T18:06:46.915Z,99058.78
2022-11-12T18:09:34.210Z,99063.28
2022-11-12T18:12:21.404Z,99046.25
2022-11-12T18:15:09.404Z,99054.16
2022-11-12T18:17:56.553Z,99054.59
2022-11-12T18:20:43.932Z,99058.28
2022-11-12T18:23:31.167Z,99056.44
2022-11-12T18:26:19.285Z,99055.31
2022-11-12T18:29:07.826Z,99065.84
2022-11-12T18:31:55.098Z,99055.19
2022-11-12T18:34:45.388Z,99060.44
2022-11-12T18:37:32.749Z,99073.13
2022-11-12T18:40:20.887Z,99056.72
2022-11-12T18:43:08.045Z,99051.63
2022-11-12T18:46:00.549Z,99061.34
2022-11-12T18:48:47.959Z,99064.44
2022-11-12T18:51:35.173Z,99068.91
2022-11-12T18:54:24.619Z,99082.50
2022-11-12T18:57:11.847Z,99074.59
2022-11-12T18:59:59.057Z,99080.03
2022-11-12T19:02:47.249Z,99087.63
2022-11-12T19:05:34.726Z,99088.69
2022-11-12T19:08:21.958Z,99085.63
2022-11-12T19:11:12.941Z,99088.41
2022-11-12T19:14:00.222Z,99093.63
2022-11-12T19:16:47.433Z,99089.75
2022-11-12T19:19:34.718Z,99088.19
2022-11-12T19:22:21.910Z,99098.69
2022-11-12T19:25:09.969Z,99103.91
2022-11-12T19:27:57.280Z,99112.38
2022-11-12T19:30:44.508Z,99116.84
2022-11-12T19:33:32.598Z,99102.16
2022-11-12T19:36:22.467Z,99107.72
2022-11-12T19:39:09.698Z,99112.94
2022-11-12T19:41:56.904Z,99120.38
2022-11-12T19:44:44.133Z,99128.41
2022-11-12T19:47:31.934Z,99128.63
2022-11-12T19:50:24.421Z,99129.06
2022-11-12T19:53:12.040Z,99137.06
2022-11-12T19:56:01.927Z,99128.16
2022-11-12T19:58:49.906Z,99134.19
2022-11-12T20:01:37.189Z,99137.41
2022-11-12T20:04:24.576Z,99137.84
2022-11-12T20:07:12.015Z,99127.19
2022-11-12T20:10:01.094Z,99120.50
2022-11-12T20:12:48.578Z,99125.78
2022-11-12T20:15:38.750Z,99125.28
2022-11-12T20:18:26.336Z,99139.34
2022-11-12T20:21:14.024Z,99140.69
2022-11-12T20:24:01.898Z,99133.56
2022-11-12T20:26:49.128Z,99149.59
2022-11-12T20:29:36.463Z,99135.38
2022-11-12T20:32:23.749Z,99136.13
2022-11-12T20:35:17.733Z,99132.38
2022-11-12T20:38:08.665Z,99133.34
2022-11-12T20:41:00.553Z,99130.03
2022-11-12T20:43:48.482Z,99129.50
2022-11-12T20:46:35.640Z,99137.75
2022-11-12T20:49:22.819Z,99124.41
2022-11-12T20:52:10.073Z,99114.94
2022-11-12T20:54:57.401Z,99118.28
2022-11-12T20:57:44.654Z,99122.88
2022-11-12T21:00:32.445Z,99133.97
2022-11-12T21:03:19.698Z,99121.31
2022-11-12T21:06:09.182Z,99121.44
2022-11-12T21:08:59.634Z,99121.44
2022-11-12T21:11:47.091Z,99120.66
2022-11-12T21:14:34.186Z,99121.50
2022-11-12T21:17:21.404Z,99108.88
2022-11-12T21:20:08.829Z,99119.88
2022-11-12T21:22:57.681Z,99118.06
2022-11-12T21:25:44.895Z,99102.63
2022-11-12T21:28:37.226Z,99096.97
2022-11-12T21:31:28.256Z,99103.41
2022-11-12T21:34:15.388Z,99100.97
2022-11-12T21:37:02.569Z,99096.97
2022-11-12T21:39:49.766Z,99099.28
2022-11-12T21:42:36.926Z,99097.75
2022-11-12T21:45:24.088Z,99099.28
2022-11-12T21:48:11.224Z,99098.75
2022-11-12T21:51:04.978Z,99089.53
2022-11-12T21:53:56.125Z,99095.75
2022-11-12T21:56:44.271Z,99104.88
2022-11-12T21:59:31.510Z,99090.19
2022-11-12T22:02:18.647Z,99104.19
2022-11-12T22:05:06.040Z,99101.63
2022-11-12T22:07:54.031Z,99085.97
2022-11-12T22:10:41.209Z,99095.19
2022-11-12T22:13:28.494Z,99094.19
2022-11-12T22:16:22.593Z,99108.97
2022-11-12T22:19:10.393Z,99115.84
2022-11-12T22:21:57.494Z,99115.19
2022-11-12T22:24:44.682Z,99128.84
2022-11-12T22:27:34.006Z,99129.75
2022-11-12T22:30:21.197Z,99149.50
2022-11-12T22:33:08.550Z,99136.06
2022-11-12T22:35:55.714Z,99137.28
2022-11-12T22:38:46.943Z,99128.59
2022-11-12T22:41:34.369Z,99132.94
2022-11-12T22:44:21.517Z,99119.19
2022-11-12T22:47:08.610Z,99107.53
2022-11-12T22:49:55.770Z,99117.72
2022-11-12T22:52:47.346Z,99113.75
2022-11-12T22:55:37.212Z,99116.19
2022-11-12T22:58:25.086Z,99109.09
2022-11-12T23:01:23.887Z,99104.41
2022-11-12T23:04:11.082Z,99111.63
2022-11-12T23:06:58.230Z,99115.06
2022-11-12T23:09:45.429Z,99110.31
2022-11-12T23:12:32.597Z,99115.50
2022-11-12T23:15:19.799Z,99122.31
2022-11-12T23:18:07.068Z,99126.41
2022-11-12T23:20:54.184Z,99127.97
2022-11-12T23:23:41.355Z,99122.44
2022-11-12T23:26:31.835Z,99140.19
2022-11-12T23:29:18.931Z,99136.63
2022-11-12T23:32:06.076Z,99141.09
2022-11-12T23:34:53.175Z,99146.84
2022-11-12T23:37:40.325Z,99140.31
2022-11-12T23:40:31.132Z,99143.75
2022-11-12T23:43:18.530Z,99140.72
2022-11-12T23:46:05.810Z,99148.88
2022-11-12T23:48:53.012Z,99143.31
2022-11-12T23:51:40.171Z,99155.19
2022-11-12T23:54:27.271Z,99152.50
2022-11-12T23:57:14.626Z,99144.06
